Time;durP1;ratioP1;P1;durP2;ratioP2;P2;SDS_P1;SDS_P2;PMS_P1;PMS_P2;Temp;Humidity;BMP_temperature;BMP_pressure;BME280_temperature;BME280_humidity;BME280_pressure;Samples;Min_cycle;Max_cycle;Signal;HPM_P1;HPM_P2
2023/08/07 00:00:09;;;;;;;0.30;0.30;;;;;;;14.22;96.93;98271.66;5074459;28;42881;-81
2023/08/07 00:02:36;;;;;;;0.30;0.30;;;;;;;14.24;97.19;98269.72;5074785;28;42368;-81
2023/08/07 00:05:04;;;;;;;0.30;0.30;;;;;;;14.21;96.45;98278.00;5092216;28;41155;-82
2023/08/07 00:07:32;;;;;;;0.20;0.20;;;;;;;14.20;96.74;98277.16;5057758;28;41890;-80
2023/08/07 00:10:03;;;;;;;0.70;0.40;;;;;;;14.02;96.91;98265.41;5090505;28;42876;-82
2023/08/07 00:12:30;;;;;;;0.40;0.27;;;;;;;14.08;97.05;98280.03;5072974;28;40934;-82
2023/08/07 00:14:58;;;;;;;0.30;0.30;;;;;;;14.02;97.41;98274.25;5072714;28;40894;-83
2023/08/07 00:17:25;;;;;;;0.30;0.30;;;;;;;14.13;97.02;98275.13;5073168;28;40670;-81
2023/08/07 00:19:53;;;;;;;0.30;0.30;;;;;;;14.12;97.17;98284.94;5072586;28;41415;-82
2023/08/07 00:22:20;;;;;;;0.30;0.30;;;;;;;14.07;97.87;98276.53;5073129;28;42116;-82
2023/08/07 00:24:47;;;;;;;0.60;0.40;;;;;;;14.10;97.89;98284.22;5073231;28;39950;-82
2023/08/07 00:27:17;;;;;;;0.77;0.43;;;;;;;14.01;97.50;98275.22;5072897;28;41791;-81
2023/08/07 00:29:44;;;;;;;0.60;0.37;;;;;;;14.12;97.26;98292.09;5073072;28;43120;-82
2023/08/07 00:32:12;;;;;;;0.97;0.40;;;;;;;14.12;97.13;98289.41;5072791;28;41986;-81
2023/08/07 00:34:41;;;;;;;0.40;0.40;;;;;;;14.11;97.21;98293.06;5089912;28;41578;-82
2023/08/07 00:37:09;;;;;;;0.37;0.33;;;;;;;14.11;97.57;98296.56;5072405;28;42066;-82
2023/08/07 00:39:36;;;;;;;0.80;0.60;;;;;;;14.09;97.33;98297.69;5072837;28;41845;-82
2023/08/07 00:42:04;;;;;;;0.40;0.40;;;;;;;14.00;97.17;98300.16;5073171;28;44227;-80
2023/08/07 00:44:33;;;;;;;0.33;0.33;;;;;;;13.95;96.74;98297.06;5074252;28;40926;-82
2023/08/07 00:47:00;;;;;;;1.17;0.40;;;;;;;13.95;97.37;98297.06;5073679;28;40664;-83
2023/08/07 00:49:28;;;;;;;0.30;0.30;;;;;;;13.97;96.80;98296.94;5090806;28;43753;-82
2023/08/07 00:51:56;;;;;;;0.80;0.37;;;;;;;13.91;96.66;98300.94;5091543;28;42304;-82
2023/08/07 00:54:25;;;;;;;0.67;0.53;;;;;;;13.99;97.25;98311.78;5076267;28;40815;-82
2023/08/07 00:56:53;;;;;;;0.20;0.20;;;;;;;13.81;97.45;98284.06;5074210;28;41801;-83
2023/08/07 00:59:22;;;;;;;0.83;0.83;;;;;;;13.98;97.61;98309.25;5091060;28;43728;-82
2023/08/07 01:01:52;;;;;;;0.30;0.30;;;;;;;13.95;97.31;98309.53;5094270;28;42927;-80
2023/08/07 01:04:19;;;;;;;0.23;0.20;;;;;;;13.92;97.47;98304.44;5077323;28;39874;-83
2023/08/07 01:06:48;;;;;;;0.60;0.60;;;;;;;13.94;97.48;98314.00;5060280;28;41002;-84
2023/08/07 01:09:16;;;;;;;0.37;0.37;;;;;;;13.94;97.65;98321.13;5093366;28;42672;-83
2023/08/07 01:11:49;;;;;;;0.93;0.60;;;;;;;13.89;97.86;98308.22;5091482;28;42389;-84
2023/08/07 01:14:27;;;;;;;0.40;0.40;;;;;;;13.82;97.56;98291.09;5076310;28;40952;-82
2023/08/07 01:17:01;;;;;;;0.30;0.30;;;;;;;13.92;97.83;98323.09;5092299;28;42355;-81
2023/08/07 01:19:30;;;;;;;0.37;0.30;;;;;;;13.93;97.34;98320.28;5059548;28;41736;-80
2023/08/07 01:22:09;;;;;;;0.77;0.50;;;;;;;13.90;97.62;98319.69;5092686;28;43542;-81
2023/08/07 01:24:40;;;;;;;0.93;0.40;;;;;;;13.90;97.37;98325.03;5075772;28;40973;-82
2023/08/07 01:27:31;;;;;;;0.43;0.43;;;;;;;13.91;97.54;98327.56;5075311;28;41926;-80
2023/08/07 01:30:10;;;;;;;1.13;0.47;;;;;;;13.86;97.33;98319.09;5075539;28;42743;-81
2023/08/07 01:32:48;;;;;;;1.70;0.43;;;;;;;13.80;97.50;98316.97;5072627;28;42269;-81
2023/08/07 01:35:18;;;;;;;1.10;0.40;;;;;;;13.75;97.57;98311.19;5075555;28;40441;-80
2023/08/07 01:37:48;;;;;;;0.40;0.40;;;;;;;13.70;97.20;98313.41;5058448;28;41819;-80
2023/08/07 01:40:17;;;;;;;0.40;0.40;;;;;;;13.69;97.46;98317.03;5058810;28;41600;-82
2023/08/07 01:42:47;;;;;;;0.57;0.30;;;;;;;13.71;97.48;98320.41;5093185;28;42277;-83
2023/08/07 01:45:14;;;;;;;0.73;0.73;;;;;;;13.78;97.39;98332.22;5059172;28;40058;-80
2023/08/07 01:47:42;;;;;;;1.17;0.50;;;;;;;13.62;97.30;98322.00;5076540;28;40849;-81
2023/08/07 01:50:10;;;;;;;0.47;0.40;;;;;;;13.62;97.32;98324.66;5075713;28;43914;-85
2023/08/07 01:52:37;;;;;;;0.40;0.40;;;;;;;13.71;97.47;98341.72;5076316;28;42429;-80
2023/08/07 01:55:07;;;;;;;0.27;0.27;;;;;;;13.72;97.00;98343.41;5076156;28;40893;-81
2023/08/07 01:57:34;;;;;;;0.37;0.37;;;;;;;13.62;97.33;98347.78;5076188;28;40634;-78
2023/08/07 02:00:03;;;;;;;0.37;0.37;;;;;;;13.60;97.16;98345.22;5059440;28;42914;-81
2023/08/07 02:02:44;;;;;;;0.93;0.50;;;;;;;13.69;97.18;98356.94;5076131;28;41493;-80
2023/08/07 02:05:12;;;;;;;0.83;0.53;;;;;;;13.69;97.54;98354.28;5093059;28;40919;-81
2023/08/07 02:07:39;;;;;;;0.33;0.33;;;;;;;13.66;97.53;98371.34;5076319;28;40649;-81
2023/08/07 02:10:09;;;;;;;0.30;0.30;;;;;;;13.53;97.47;98343.22;5074003;28;41320;-82
2023/08/07 02:12:37;;;;;;;1.23;0.80;;;;;;;13.46;97.12;98339.41;5073235;28;41602;-78
2023/08/07 02:15:06;;;;;;;0.40;0.27;;;;;;;13.52;97.43;98347.69;5091839;28;40673;-81
2023/08/07 02:17:35;;;;;;;0.30;0.30;;;;;;;13.57;97.37;98366.78;5091901;28;41461;-83
2023/08/07 02:20:03;;;;;;;2.73;0.70;;;;;;;13.64;97.41;98367.13;5074418;28;41853;-80
2023/08/07 02:22:31;;;;;;;1.53;0.50;;;;;;;13.63;97.30;98370.75;5074795;28;41326;-80
2023/08/07 02:24:59;;;;;;;0.87;0.50;;;;;;;13.60;97.17;98376.31;5074722;28;39627;-84
2023/08/07 02:27:28;;;;;;;0.67;0.37;;;;;;;13.61;97.64;98388.66;5057947;28;40912;-81
2023/08/07 02:29:55;;;;;;;1.37;0.50;;;;;;;13.62;97.09;98385.03;5074342;28;42874;-82
2023/08/07 02:32:24;;;;;;;0.50;0.30;;;;;;;13.61;97.27;98383.31;5091670;28;42384;-82
2023/08/07 02:34:55;;;;;;;1.73;0.60;;;;;;;13.51;97.05;98367.28;5074367;28;42662;-83
2023/08/07 02:37:25;;;;;;;0.60;0.50;;;;;;;13.58;96.82;98388.94;5074808;28;41904;-81
2023/08/07 02:39:53;;;;;;;0.57;0.57;;;;;;;13.61;96.93;98380.66;5074230;28;42669;-83
2023/08/07 02:42:21;;;;;;;0.43;0.43;;;;;;;13.57;97.19;98368.63;5075512;28;41388;-84
2023/08/07 02:44:50;;;;;;;0.50;0.50;;;;;;;13.61;96.85;98383.31;5058960;28;40411;-82
2023/08/07 02:47:17;;;;;;;1.80;0.70;;;;;;;13.53;96.40;98373.34;5075594;28;42805;-85
2023/08/07 02:49:45;;;;;;;1.70;0.60;;;;;;;13.62;96.41;98390.34;5075618;28;42150;-81
2023/08/07 02:52:13;;;;;;;0.40;0.40;;;;;;;13.61;95.95;98393.97;5075645;28;41536;-83
2023/08/07 02:54:40;;;;;;;0.70;0.70;;;;;;;13.61;95.77;98399.28;5092635;28;41813;-82
2023/08/07 02:57:08;;;;;;;0.50;0.50;;;;;;;13.58;95.88;98391.59;5075249;28;41848;-83
2023/08/07 02:59:35;;;;;;;1.03;0.47;;;;;;;13.60;95.57;98386.97;5075715;28;43746;-83
2023/08/07 03:02:05;;;;;;;1.70;0.67;;;;;;;13.61;96.20;98389.50;5058344;28;41315;-82
2023/08/07 03:04:33;;;;;;;0.53;0.50;;;;;;;13.48;96.09;98377.31;5075236;28;39891;-84
2023/08/07 03:07:01;;;;;;;1.00;0.70;;;;;;;13.48;95.71;98387.97;5074895;28;40753;-86
2023/08/07 03:09:29;;;;;;;0.90;0.70;;;;;;;13.56;95.78;98393.53;5074167;28;41493;-83
2023/08/07 03:11:56;;;;;;;1.07;0.57;;;;;;;13.56;95.48;98405.00;5073291;28;41622;-80
2023/08/07 03:14:23;;;;;;;1.60;0.77;;;;;;;13.49;95.42;98392.31;5090792;28;39687;-82
2023/08/07 03:16:51;;;;;;;2.03;1.00;;;;;;;13.48;95.22;98394.13;5056644;28;41069;-83
2023/08/07 03:19:21;;;;;;;0.77;0.50;;;;;;;13.44;95.76;98391.88;5073870;28;41685;-81
2023/08/07 03:21:49;;;;;;;1.23;0.73;;;;;;;13.39;95.28;98386.06;5073764;28;41534;-83
2023/08/07 03:24:16;;;;;;;2.37;0.70;;;;;;;13.49;95.35;98408.28;5073379;28;42688;-83
2023/08/07 03:26:44;;;;;;;0.90;0.70;;;;;;;13.43;95.46;98390.19;5073404;28;40763;-83
2023/08/07 03:29:14;;;;;;;1.90;0.80;;;;;;;13.51;95.09;98414.31;5090845;28;43535;-83
2023/08/07 03:31:41;;;;;;;1.03;0.93;;;;;;;13.42;94.94;98393.81;5056665;28;42612;-84
2023/08/07 03:34:09;;;;;;;0.80;0.70;;;;;;;13.42;95.06;98405.28;5073775;28;41976;-84
2023/08/07 03:36:38;;;;;;;2.03;0.90;;;;;;;13.43;95.51;98408.78;5073380;28;41917;-83
2023/08/07 03:39:05;;;;;;;1.47;0.60;;;;;;;13.46;95.26;98421.84;5073266;28;41408;-84
2023/08/07 03:41:33;;;;;;;3.60;0.70;;;;;;;13.36;95.31;98408.44;5074045;28;41187;-82
2023/08/07 03:44:01;;;;;;;3.33;0.80;;;;;;;13.31;95.02;98400.00;5057982;28;40939;-83
2023/08/07 03:46:29;;;;;;;1.83;0.80;;;;;;;13.45;94.73;98421.00;5091344;28;42570;-84
2023/08/07 03:48:57;;;;;;;1.43;1.10;;;;;;;13.43;95.07;98422.94;5074556;28;43597;-84
2023/08/07 03:51:26;;;;;;;0.87;0.77;;;;;;;13.38;95.26;98424.25;5074412;28;41320;-85
2023/08/07 03:53:56;;;;;;;1.87;0.83;;;;;;;13.42;95.16;98426.56;5074579;28;39887;-82
2023/08/07 03:56:24;;;;;;;1.30;0.90;;;;;;;13.40;94.97;98427.66;5073976;28;40947;-85
2023/08/07 03:58:52;;;;;;;1.50;1.00;;;;;;;13.42;95.09;98431.88;5090992;28;43516;-83
2023/08/07 04:01:22;;;;;;;2.40;0.90;;;;;;;13.39;95.29;98425.97;5091163;28;42283;-82
2023/08/07 04:03:50;;;;;;;1.30;0.80;;;;;;;13.28;95.20;98409.06;5091542;28;40945;-85
2023/08/07 04:06:18;;;;;;;3.13;1.03;;;;;;;13.40;95.40;98433.81;5056984;28;42058;-85
2023/08/07 04:08:46;;;;;;;1.73;0.90;;;;;;;13.34;95.56;98417.53;5073733;28;43338;-83
2023/08/07 04:11:15;;;;;;;2.53;0.97;;;;;;;13.35;95.34;98424.53;5082197;28;43976;-82
2023/08/07 04:13:42;;;;;;;3.00;0.80;;;;;;;13.45;95.26;98436.13;5066616;28;40161;-82
2023/08/07 04:16:10;;;;;;;1.77;1.20;;;;;;;13.43;95.05;98438.06;5072935;28;40778;-83
2023/08/07 04:18:37;;;;;;;2.07;1.40;;;;;;;13.40;95.00;98435.63;5073109;28;43799;-85
2023/08/07 04:21:05;;;;;;;0.90;0.90;;;;;;;13.44;94.78;98437.09;5055760;28;41690;-82
2023/08/07 04:23:33;;;;;;;1.43;1.10;;;;;;;13.45;94.87;98449.41;5072825;28;41133;-83
2023/08/07 04:26:01;;;;;;;1.27;1.10;;;;;;;13.39;95.00;98434.78;5072761;28;41700;-83
2023/08/07 04:28:30;;;;;;;1.80;1.13;;;;;;;13.37;94.98;98433.22;5072210;28;42290;-85
2023/08/07 04:30:57;;;;;;;2.27;0.80;;;;;;;13.46;94.29;98453.78;5055918;28;41110;-83
2023/08/07 04:33:25;;;;;;;2.10;1.07;;;;;;;13.46;94.68;98457.28;5072747;28;41006;-82
2023/08/07 04:35:52;;;;;;;1.10;1.00;;;;;;;13.48;94.61;98457.13;5074442;28;41927;-83
2023/08/07 04:38:20;;;;;;;3.23;1.33;;;;;;;13.37;94.70;98443.84;5076307;28;41369;-82
2023/08/07 04:40:48;;;;;;;1.93;1.00;;;;;;;13.41;94.63;98440.84;5059976;28;40865;-83
2023/08/07 04:43:17;;;;;;;2.93;1.40;;;;;;;13.50;94.25;98463.19;5077263;28;40264;-82
2023/08/07 04:45:46;;;;;;;2.00;1.10;;;;;;;13.46;94.44;98459.09;5060490;28;41038;-82
2023/08/07 04:48:14;;;;;;;1.47;1.10;;;;;;;13.38;94.71;98453.53;5077155;28;41852;-83
2023/08/07 04:50:41;;;;;;;2.57;1.10;;;;;;;13.11;94.56;98411.34;5094486;28;42449;-83
2023/08/07 04:53:09;;;;;;;2.20;1.37;;;;;;;13.47;94.61;98471.44;5094030;28;41868;-82
2023/08/07 04:55:36;;;;;;;2.73;1.50;;;;;;;13.46;94.49;98467.91;5093107;28;41419;-83
2023/08/07 04:58:04;;;;;;;2.67;1.30;;;;;;;13.44;94.37;98467.19;5075823;28;42876;-82
2023/08/07 05:00:31;;;;;;;3.20;1.20;;;;;;;13.49;94.71;98462.31;5075793;28;42440;-80
2023/08/07 05:03:01;;;;;;;2.13;1.30;;;;;;;13.46;94.98;98472.41;5058956;28;40057;-82
2023/08/07 05:05:28;;;;;;;1.27;0.90;;;;;;;13.41;94.98;98475.41;5075317;28;41987;-82
2023/08/07 05:07:57;;;;;;;2.37;1.33;;;;;;;13.44;95.09;98482.31;5075742;28;41421;-84
2023/08/07 05:10:25;;;;;;;2.67;1.23;;;;;;;13.35;94.46;98467.09;5074784;28;42810;-85
2023/08/07 05:12:55;;;;;;;1.93;1.30;;;;;;;13.33;94.69;98458.38;5089777;28;40779;-84
2023/08/07 05:15:23;;;;;;;2.30;1.33;;;;;;;13.41;94.51;98477.22;5075741;28;41616;-83
2023/08/07 05:17:51;;;;;;;3.00;1.07;;;;;;;13.37;94.51;98476.63;5075792;28;41563;-84
2023/08/07 05:20:19;;;;;;;2.37;1.23;;;;;;;13.41;94.40;98482.53;5058712;28;41301;-85
2023/08/07 05:22:47;;;;;;;3.10;1.50;;;;;;;13.18;95.04;98450.66;5092341;28;42000;-82
2023/08/07 05:25:16;;;;;;;1.20;0.80;;;;;;;13.43;94.35;98492.09;5075260;28;40930;-82
2023/08/07 05:27:43;;;;;;;2.37;1.00;;;;;;;13.42;94.28;98486.91;5075619;28;42920;-81
2023/08/07 05:30:12;;;;;;;2.63;1.20;;;;;;;13.35;94.11;98464.44;5075263;28;42256;-84
2023/08/07 05:32:39;;;;;;;2.53;1.20;;;;;;;13.23;93.80;98459.09;5075854;28;40218;-85
2023/08/07 05:35:08;;;;;;;1.77;1.20;;;;;;;13.47;94.27;98484.72;5075394;28;40684;-84
2023/08/07 05:37:37;;;;;;;1.30;1.20;;;;;;;13.42;93.73;98478.91;5092435;28;42571;-83
2023/08/07 05:40:07;;;;;;;1.50;1.30;;;;;;;13.50;93.66;98492.44;5058594;28;42356;-86
2023/08/07 05:42:34;;;;;;;1.87;1.40;;;;;;;13.46;93.25;98480.38;5094367;28;41266;-82
2023/08/07 05:45:02;;;;;;;1.00;0.90;;;;;;;13.57;93.20;98499.81;5075991;28;40834;-84
2023/08/07 05:47:29;;;;;;;1.50;1.40;;;;;;;13.46;92.95;98475.91;5094082;28;42734;-83
2023/08/07 05:49:57;;;;;;;2.10;1.30;;;;;;;13.60;93.25;98501.38;5094289;28;43255;-82
2023/08/07 05:52:24;;;;;;;2.27;0.80;;;;;;;13.64;93.14;98505.47;5076483;28;39876;-84
2023/08/07 05:54:53;;;;;;;2.77;1.00;;;;;;;13.59;93.03;98497.03;5076068;28;40282;-84
2023/08/07 05:57:21;;;;;;;1.73;0.90;;;;;;;13.60;92.82;98498.72;5092812;28;41909;-85
2023/08/07 05:59:48;;;;;;;1.77;1.07;;;;;;;13.58;92.15;98484.72;5076344;28;42357;-84
2023/08/07 06:02:15;;;;;;;1.20;1.10;;;;;;;13.76;92.07;98507.16;5076055;28;41562;-82
2023/08/07 06:04:43;;;;;;;1.73;1.60;;;;;;;13.77;91.33;98519.50;5092879;28;41745;-84
2023/08/07 06:07:11;;;;;;;2.07;1.00;;;;;;;13.75;91.96;98517.91;5076148;28;43747;-83
2023/08/07 06:09:53;;;;;;;1.00;1.00;;;;;;;13.69;91.42;98505.97;5056873;28;41645;-82
2023/08/07 06:12:21;;;;;;;2.60;1.40;;;;;;;13.68;91.32;98511.41;5053023;28;40552;-87
2023/08/07 06:14:48;;;;;;;1.03;0.83;;;;;;;13.80;91.45;98527.25;5050014;28;40586;-87
2023/08/07 06:17:16;;;;;;;0.97;0.87;;;;;;;13.82;91.17;98530.63;5057136;28;43581;-81
2023/08/07 06:19:43;;;;;;;1.80;1.23;;;;;;;13.79;91.31;98514.06;5057787;28;41079;-85
2023/08/07 06:22:11;;;;;;;1.47;1.00;;;;;;;13.79;91.71;98520.22;5088765;28;41067;-88
2023/08/07 06:24:38;;;;;;;1.80;1.20;;;;;;;13.84;91.60;98526.03;5074818;28;41947;-85
2023/08/07 06:27:08;;;;;;;1.30;1.07;;;;;;;13.87;90.92;98520.44;5056695;28;41954;-85
2023/08/07 06:29:35;;;;;;;1.30;0.90;;;;;;;13.91;90.52;98527.22;5057565;28;42659;-82
2023/08/07 06:32:02;;;;;;;0.80;0.77;;;;;;;13.97;90.01;98533.88;5091765;28;40971;-84
2023/08/07 06:34:30;;;;;;;1.37;1.10;;;;;;;14.01;90.14;98529.97;5074514;28;41643;-86
2023/08/07 06:36:58;;;;;;;1.17;1.00;;;;;;;14.16;89.73;98554.50;5056110;28;41263;-87
2023/08/07 06:39:25;;;;;;;1.00;0.90;;;;;;;14.19;88.47;98543.59;5056803;28;41240;-86
2023/08/07 06:41:53;;;;;;;1.07;1.07;;;;;;;14.20;87.74;98543.47;5074537;28;40117;-84
2023/08/07 06:44:29;;;;;;;1.63;1.30;;;;;;;14.23;87.25;98535.22;5058596;28;40574;-84
2023/08/07 06:46:56;;;;;;;1.53;1.10;;;;;;;14.27;86.99;98544.66;5057525;28;41164;-84
2023/08/07 06:49:24;;;;;;;1.23;0.97;;;;;;;14.42;86.86;98536.41;5093031;28;42943;-89
2023/08/07 06:51:51;;;;;;;3.00;1.30;;;;;;;14.60;86.95;98543.69;5074353;28;40070;-87
2023/08/07 06:54:19;;;;;;;1.23;0.90;;;;;;;14.70;85.93;98549.97;5090874;28;42543;-83
2023/08/07 06:56:46;;;;;;;2.10;0.97;;;;;;;14.83;85.06;98559.59;5073388;28;41604;-86
2023/08/07 06:59:14;;;;;;;1.77;1.00;;;;;;;14.81;84.72;98540.19;5072858;28;43273;-87
2023/08/07 07:01:43;;;;;;;4.23;1.20;;;;;;;14.86;83.82;98553.97;5090501;28;40089;-88
2023/08/07 07:04:10;;;;;;;1.20;1.10;;;;;;;14.96;84.07;98544.25;5053366;28;41039;-85
2023/08/07 07:06:38;;;;;;;1.73;0.90;;;;;;;15.00;84.51;98551.81;5053339;28;41815;-85
2023/08/07 07:09:06;;;;;;;1.10;0.90;;;;;;;15.09;84.06;98551.03;5069724;28;42187;-85
2023/08/07 07:11:34;;;;;;;1.93;1.20;;;;;;;15.12;83.51;98555.25;5052654;28;40023;-85
2023/08/07 07:14:02;;;;;;;1.03;0.77;;;;;;;15.21;83.71;98564.28;5055906;28;42474;-86
2023/08/07 07:16:29;;;;;;;1.37;0.87;;;;;;;15.13;81.87;98548.97;5072602;28;41763;-82
2023/08/07 07:18:59;;;;;;;0.97;0.80;;;;;;;15.35;81.73;98582.63;5056147;28;40969;-84
2023/08/07 07:21:27;;;;;;;2.10;1.10;;;;;;;15.39;82.44;98568.91;5073017;28;39446;-87
2023/08/07 07:23:55;;;;;;;0.87;0.87;;;;;;;15.43;80.00;98575.66;5056369;28;41674;-86
2023/08/07 07:26:22;;;;;;;1.37;1.10;;;;;;;15.58;79.66;98589.50;5056455;28;43233;-87
2023/08/07 07:28:51;;;;;;;1.07;0.97;;;;;;;15.56;79.46;98580.81;5064294;28;42769;-85
2023/08/07 07:31:18;;;;;;;2.17;1.43;;;;;;;15.50;79.34;98581.31;5073591;28;41216;-84
2023/08/07 07:33:46;;;;;;;1.83;1.00;;;;;;;15.43;78.80;98591.69;5059530;28;40519;-84
2023/08/07 07:36:18;;;;;;;3.77;1.30;;;;;;;15.39;79.71;98579.56;5056109;28;41824;-88
2023/08/07 07:38:47;;;;;;;1.30;1.20;;;;;;;15.57;80.03;98603.88;5055829;28;41018;-86
2023/08/07 07:41:15;;;;;;;2.37;0.80;;;;;;;15.66;80.09;98602.22;5056780;28;39837;-85
2023/08/07 07:43:43;;;;;;;1.37;0.87;;;;;;;15.82;78.60;98608.72;5056769;28;40842;-90
2023/08/07 07:46:10;;;;;;;2.37;1.13;;;;;;;16.11;78.94;98622.19;5074034;28;41832;-87
2023/08/07 07:48:38;;;;;;;1.37;1.07;;;;;;;16.12;77.88;98602.50;5057243;28;42665;-89
2023/08/07 07:51:06;;;;;;;2.00;0.90;;;;;;;16.17;77.66;98605.63;5074009;28;39940;-89
2023/08/07 07:53:35;;;;;;;1.40;1.10;;;;;;;16.22;77.19;98615.03;5056940;28;40961;-83
2023/08/07 07:56:02;;;;;;;3.30;0.80;;;;;;;16.36;76.30;98628.00;5057129;28;43901;-84
2023/08/07 07:58:29;;;;;;;1.57;0.97;;;;;;;16.28;75.73;98626.03;5057021;28;42250;-87
2023/08/07 08:00:57;;;;;;;1.87;0.93;;;;;;;16.37;74.86;98635.03;5057814;28;39682;-86
2023/08/07 08:03:24;;;;;;;0.80;0.80;;;;;;;16.49;75.21;98649.97;5056485;28;40319;-86
2023/08/07 08:05:53;;;;;;;1.20;1.00;;;;;;;16.49;74.77;98641.97;5057546;28;43513;-89
2023/08/07 08:08:20;;;;;;;1.10;0.93;;;;;;;16.73;74.71;98644.28;5073494;28;41325;-84
2023/08/07 08:10:51;;;;;;;1.83;0.90;;;;;;;16.82;73.60;98641.59;5057835;28;39703;-90
2023/08/07 08:13:18;;;;;;;0.87;0.80;;;;;;;16.95;73.52;98660.03;5059384;28;41142;-89
2023/08/07 08:15:46;;;;;;;2.77;1.93;;;;;;;16.94;73.96;98650.31;5059622;28;42883;-87
2023/08/07 08:18:14;;;;;;;0.90;0.90;;;;;;;16.94;72.66;98660.19;5072754;28;41146;-89
2023/08/07 08:20:41;;;;;;;1.30;0.90;;;;;;;16.96;72.08;98666.22;5056113;28;40511;-87
2023/08/07 08:23:09;;;;;;;2.30;0.60;;;;;;;16.96;71.42;98669.75;5068587;28;41148;-86
2023/08/07 08:25:36;;;;;;;0.67;0.63;;;;;;;16.87;71.83;98663.44;5093161;28;41549;-88
2023/08/07 08:28:06;;;;;;;0.93;0.90;;;;;;;16.89;71.20;98679.34;5059499;28;41621;-89
2023/08/07 08:30:34;;;;;;;1.03;0.83;;;;;;;16.73;70.78;98679.88;5076077;28;41585;-84
2023/08/07 08:33:02;;;;;;;0.80;0.70;;;;;;;16.60;70.93;98673.06;5058831;28;41078;-82
2023/08/07 08:35:30;;;;;;;1.00;0.80;;;;;;;16.66;72.51;98681.44;5075509;28;42676;-85
2023/08/07 08:37:57;;;;;;;1.20;0.70;;;;;;;16.70;71.47;98688.16;5058765;28;41101;-87
2023/08/07 08:40:25;;;;;;;0.80;0.80;;;;;;;16.77;71.34;98675.94;5059420;28;40406;-85
2023/08/07 08:42:53;;;;;;;0.70;0.70;;;;;;;17.15;70.59;98693.84;5056740;28;43684;-85
2023/08/07 08:45:23;;;;;;;4.00;0.93;;;;;;;17.39;68.35;98701.44;5090272;28;41705;-87
2023/08/07 08:47:52;;;;;;;3.13;1.20;;;;;;;17.67;68.98;98696.22;5076630;28;42177;-86
2023/08/07 08:50:20;;;;;;;1.73;0.93;;;;;;;17.59;67.94;98694.22;5060050;28;41458;-90
2023/08/07 08:52:47;;;;;;;1.17;0.83;;;;;;;17.56;67.52;98699.84;5059778;28;43333;-86
2023/08/07 08:55:15;;;;;;;2.77;1.10;;;;;;;17.44;67.75;98691.13;5076375;28;41787;-88
2023/08/07 08:57:43;;;;;;;1.90;1.17;;;;;;;17.39;68.06;98682.69;5059739;28;41861;-85
2023/08/07 09:00:17;;;;;;;1.57;0.73;;;;;;;17.78;68.54;98712.97;5059787;28;40158;-84
2023/08/07 09:02:48;;;;;;;1.10;0.90;;;;;;;17.88;67.08;98710.25;5060091;28;40487;-84
2023/08/07 09:05:16;;;;;;;1.13;0.80;;;;;;;18.03;67.28;98722.22;5110403;28;43496;-86
2023/08/07 09:07:46;;;;;;;0.90;0.70;;;;;;;18.17;65.54;98727.09;5089712;28;42662;-85
2023/08/07 09:10:14;;;;;;;1.20;0.87;;;;;;;18.15;65.21;98728.22;5070789;28;40030;-87
2023/08/07 09:12:46;;;;;;;1.70;0.90;;;;;;;18.10;65.82;98709.91;5074540;28;40646;-85
2023/08/07 09:15:17;;;;;;;1.70;1.03;;;;;;;18.12;65.51;98724.00;5059270;28;43012;-84
2023/08/07 09:17:47;;;;;;;2.83;0.90;;;;;;;18.03;65.03;98730.25;5058050;28;41811;-84
2023/08/07 09:20:14;;;;;;;1.30;1.20;;;;;;;17.97;65.52;98721.94;5075125;28;39965;-86
2023/08/07 09:22:42;;;;;;;1.40;0.97;;;;;;;17.94;65.54;98725.75;5074374;28;40926;-85
2023/08/07 09:25:10;;;;;;;1.00;0.90;;;;;;;17.97;65.53;98719.25;5074657;28;41918;-89
2023/08/07 09:27:38;;;;;;;1.97;1.07;;;;;;;18.15;65.43;98734.44;5074473;28;42862;-85
2023/08/07 09:30:08;;;;;;;1.47;0.90;;;;;;;18.17;63.63;98729.78;5057960;28;41221;-89
2023/08/07 09:32:35;;;;;;;2.23;1.27;;;;;;;18.43;64.10;98737.13;5057503;28;41641;-88
2023/08/07 09:35:06;;;;;;;1.17;0.93;;;;;;;18.82;63.68;98759.25;5059340;28;41872;-88
2023/08/07 09:37:38;;;;;;;3.00;1.10;;;;;;;19.10;62.01;98752.03;5074404;28;41134;-89
2023/08/07 09:40:10;;;;;;;1.13;0.90;;;;;;;19.04;60.55;98763.38;5075594;28;39895;-86
2023/08/07 09:42:38;;;;;;;1.73;0.83;;;;;;;18.67;60.92;98742.81;5075888;28;42134;-89
2023/08/07 09:45:21;;;;;;;2.23;1.23;;;;;;;18.75;61.89;98750.97;5093067;28;42728;-86
2023/08/07 09:48:03;;;;;;;1.23;0.80;;;;;;;18.92;60.91;98776.16;5058823;28;41236;-86
2023/08/07 09:50:32;;;;;;;1.47;0.80;;;;;;;18.89;59.98;98777.31;5059327;28;40090;-82
2023/08/07 09:53:00;;;;;;;1.10;0.70;;;;;;;18.87;60.15;98762.34;5075607;28;41631;-90
2023/08/07 09:55:28;;;;;;;2.53;1.30;;;;;;;18.97;60.29;98780.09;5058515;28;41689;-88
2023/08/07 09:57:56;;;;;;;2.07;1.10;;;;;;;19.26;59.42;98771.84;5058362;28;42135;-85
2023/08/07 10:00:24;;;;;;;1.17;0.77;;;;;;;19.96;57.54;98799.69;5058977;28;40272;-85
2023/08/07 10:02:55;;;;;;;3.87;0.80;;;;;;;20.12;57.21;98803.50;5058998;28;41110;-87
2023/08/07 10:05:22;;;;;;;1.00;1.00;;;;;;;20.00;56.81;98808.28;5058539;28;43204;-84
2023/08/07 10:07:54;;;;;;;2.03;1.10;;;;;;;19.66;56.90;98792.88;5058442;28;40882;-86
2023/08/07 10:10:22;;;;;;;1.80;0.83;;;;;;;19.45;57.40;98788.78;5087723;28;41854;-91
2023/08/07 10:12:50;;;;;;;2.40;0.83;;;;;;;19.33;57.93;98790.84;5057354;28;40544;-88
2023/08/07 10:15:19;;;;;;;2.03;1.00;;;;;;;19.30;58.38;98777.72;5074295;28;42000;-87
2023/08/07 10:21:07;;;;;;;0.90;0.90;;;;;;;19.72;58.23;98783.34;5016637;28;40280;-87
2023/08/07 10:23:39;;;;;;;0.93;0.70;;;;;;;19.86;56.38;98800.78;5035769;28;40634;-85
2023/08/07 10:26:12;;;;;;;1.73;0.80;;;;;;;20.02;55.88;98804.44;5052951;28;41597;-88
2023/08/07 10:28:42;;;;;;;1.70;1.00;;;;;;;20.43;55.40;98828.94;5035899;28;41482;-85
2023/08/07 10:31:11;;;;;;;0.73;0.60;;;;;;;20.65;54.85;98835.59;5036082;28;40144;-84
2023/08/07 10:33:40;;;;;;;1.90;0.70;;;;;;;21.02;54.81;98825.34;5051003;28;40531;-84
2023/08/07 10:36:12;;;;;;;1.27;0.60;;;;;;;21.22;52.49;98839.44;5052224;28;43094;-84
2023/08/07 10:38:42;;;;;;;1.10;0.70;;;;;;;21.19;53.09;98822.75;5035732;28;41698;-83
2023/08/07 10:41:10;;;;;;;1.67;0.67;;;;;;;21.22;53.62;98817.88;5037815;28;39656;-80
2023/08/07 10:43:38;;;;;;;0.90;0.63;;;;;;;21.28;53.31;98824.44;5075140;28;40664;-83
2023/08/07 10:46:07;;;;;;;0.80;0.70;;;;;;;21.18;53.42;98819.19;5054753;28;42974;-84
2023/08/07 10:48:42;;;;;;;1.40;1.00;;;;;;;21.10;53.54;98833.47;5070528;28;41109;-83
2023/08/07 10:51:13;;;;;;;1.10;0.67;;;;;;;21.06;54.77;98832.09;5037489;28;40246;-83
2023/08/07 10:53:56;;;;;;;1.27;0.70;;;;;;;20.72;54.55;98813.28;5109200;28;21029;-81
2023/08/07 10:56:31;;;;;;;0.50;0.50;;;;;;;20.43;54.85;98818.16;5109538;28;38939;-84
2023/08/07 10:58:59;;;;;;;1.67;0.90;;;;;;;20.30;55.67;98841.91;5109103;28;40868;-85
2023/08/07 11:01:41;;;;;;;1.23;1.00;;;;;;;19.84;55.63;98827.81;5091325;28;43058;-83
2023/08/07 11:04:11;;;;;;;1.87;0.93;;;;;;;19.62;56.36;98839.88;5092095;28;41196;-83
2023/08/07 11:06:40;;;;;;;1.10;0.80;;;;;;;19.44;57.65;98825.53;5091393;28;38980;-85
2023/08/07 11:09:10;;;;;;;0.73;0.57;;;;;;;19.15;58.03;98808.81;5108283;28;42044;-81
2023/08/07 11:11:39;;;;;;;0.70;0.70;;;;;;;19.03;58.66;98821.59;5088982;28;43381;-87
2023/08/07 11:14:07;;;;;;;1.80;0.67;;;;;;;18.83;58.91;98836.09;5089824;28;41080;-86
2023/08/07 11:16:35;;;;;;;1.33;0.83;;;;;;;18.62;59.72;98817.53;5089876;28;39140;-86
2023/08/07 11:19:04;;;;;;;0.83;0.77;;;;;;;18.64;60.30;98810.19;5105304;28;42154;-85
2023/08/07 11:21:32;;;;;;;1.67;1.00;;;;;;;18.47;60.58;98810.94;5106682;28;42069;-84
2023/08/07 11:24:01;;;;;;;0.60;0.60;;;;;;;18.59;61.10;98807.09;5134503;27;42040;-82
2023/08/07 11:26:31;;;;;;;0.80;0.80;;;;;;;18.59;61.04;98799.91;5066466;28;39820;-83
2023/08/07 11:28:58;;;;;;;1.97;0.77;;;;;;;18.78;61.12;98819.59;5098644;28;40784;-85
2023/08/07 11:31:27;;;;;;;2.13;0.63;;;;;;;18.86;61.17;98825.91;5085474;28;43125;-85
2023/08/07 11:33:57;;;;;;;0.90;0.73;;;;;;;18.94;61.50;98825.16;5067943;28;40730;-86
2023/08/07 11:36:25;;;;;;;0.70;0.67;;;;;;;18.85;60.50;98831.41;5068927;28;39325;-83
2023/08/07 11:38:52;;;;;;;1.50;0.60;;;;;;;18.77;60.14;98834.84;5082710;28;40797;-81
2023/08/07 11:41:20;;;;;;;0.80;0.77;;;;;;;18.74;60.78;98836.97;5087441;28;42720;-87
2023/08/07 11:43:49;;;;;;;1.83;0.90;;;;;;;18.60;61.04;98817.69;5109838;27;41720;-82